sensor_id;sensor_type;location;lat;lon;timestamp;pressure;altitude;pressure_sealevel;temperature;humidity
6132;BME280;3097;42.692;23.278;2024-03-29T00:01:48;94777.41;;;14.13;52.49
6132;BME280;3097;42.692;23.278;2024-03-29T00:04:14;94764.47;;;13.91;52.59
6132;BME280;3097;42.692;23.278;2024-03-29T00:06:39;94780.03;;;13.91;53.21
6132;BME280;3097;42.692;23.278;2024-03-29T00:09:05;94783.00;;;13.78;53.41
6132;BME280;3097;42.692;23.278;2024-03-29T00:11:31;94796.50;;;13.80;53.85
6132;BME280;3097;42.692;23.278;2024-03-29T00:13:56;94791.28;;;13.75;53.96
6132;BME280;3097;42.692;23.278;2024-03-29T00:16:23;94804.38;;;13.69;53.86
6132;BME280;3097;42.692;23.278;2024-03-29T00:18:51;94800.72;;;13.65;53.96
6132;BME280;3097;42.692;23.278;2024-03-29T00:21:17;94801.28;;;13.67;53.88
6132;BME280;3097;42.692;23.278;2024-03-29T00:23:43;94778.81;;;13.50;54.00
6132;BME280;3097;42.692;23.278;2024-03-29T00:26:11;94807.53;;;13.71;54.36
6132;BME280;3097;42.692;23.278;2024-03-29T00:28:37;94805.44;;;13.68;53.83
6132;BME280;3097;42.692;23.278;2024-03-29T00:31:03;94815.25;;;13.66;53.51
6132;BME280;3097;42.692;23.278;2024-03-29T00:33:29;94814.94;;;13.62;53.82
6132;BME280;3097;42.692;23.278;2024-03-29T00:35:55;94808.91;;;13.56;53.89
6132;BME280;3097;42.692;23.278;2024-03-29T00:38:21;94818.66;;;13.49;54.43
6132;BME280;3097;42.692;23.278;2024-03-29T00:40:47;94811.03;;;13.60;54.13
6132;BME280;3097;42.692;23.278;2024-03-29T00:43:12;94823.91;;;13.54;54.16
6132;BME280;3097;42.692;23.278;2024-03-29T00:45:38;94813.06;;;13.57;54.36
6132;BME280;3097;42.692;23.278;2024-03-29T00:48:03;94816.88;;;13.50;53.99
6132;BME280;3097;42.692;23.278;2024-03-29T00:50:29;94825.84;;;13.42;54.50
6132;BME280;3097;42.692;23.278;2024-03-29T00:52:55;94828.38;;;13.37;54.34
6132;BME280;3097;42.692;23.278;2024-03-29T00:55:20;94821.00;;;13.29;54.24
6132;BME280;3097;42.692;23.278;2024-03-29T00:57:46;94816.28;;;13.26;54.71
6132;BME280;3097;42.692;23.278;2024-03-29T01:00:11;94828.44;;;13.26;55.03
6132;BME280;3097;42.692;23.278;2024-03-29T01:02:37;94822.81;;;13.12;55.08
6132;BME280;3097;42.692;23.278;2024-03-29T01:05:03;94825.56;;;13.05;55.48
6132;BME280;3097;42.692;23.278;2024-03-29T01:07:29;94819.22;;;12.96;55.73
6132;BME280;3097;42.692;23.278;2024-03-29T01:09:55;94821.41;;;12.88;55.63
6132;BME280;3097;42.692;23.278;2024-03-29T01:12:20;94716.53;;;12.25;56.26
6132;BME280;3097;42.692;23.278;2024-03-29T01:14:46;94799.78;;;12.77;55.67
6132;BME280;3097;42.692;23.278;2024-03-29T01:17:11;94821.91;;;12.85;55.98
6132;BME280;3097;42.692;23.278;2024-03-29T01:19:37;94794.78;;;12.70;55.63
6132;BME280;3097;42.692;23.278;2024-03-29T01:22:03;94818.53;;;12.84;55.37
6132;BME280;3097;42.692;23.278;2024-03-29T01:24:29;94824.47;;;12.85;55.56
6132;BME280;3097;42.692;23.278;2024-03-29T01:26:55;94828.09;;;12.84;55.89
6132;BME280;3097;42.692;23.278;2024-03-29T01:29:20;94835.63;;;12.85;55.42
6132;BME280;3097;42.692;23.278;2024-03-29T01:31:46;94822.19;;;12.88;55.57
6132;BME280;3097;42.692;23.278;2024-03-29T01:34:11;94799.06;;;12.82;55.09
6132;BME280;3097;42.692;23.278;2024-03-29T01:36:37;94821.00;;;12.96;55.57
6132;BME280;3097;42.692;23.278;2024-03-29T01:39:03;94820.31;;;13.00;54.85
6132;BME280;3097;42.692;23.278;2024-03-29T01:41:29;94823.19;;;13.04;54.60
6132;BME280;3097;42.692;23.278;2024-03-29T01:43:55;94829.72;;;13.06;55.17
6132;BME280;3097;42.692;23.278;2024-03-29T01:46:23;94812.84;;;13.04;54.99
6132;BME280;3097;42.692;23.278;2024-03-29T01:48:53;94830.13;;;13.15;54.79
6132;BME280;3097;42.692;23.278;2024-03-29T01:51:20;94832.72;;;13.15;54.75
6132;BME280;3097;42.692;23.278;2024-03-29T01:53:47;94830.50;;;13.07;54.82
6132;BME280;3097;42.692;23.278;2024-03-29T01:56:15;94853.00;;;13.06;54.79
6132;BME280;3097;42.692;23.278;2024-03-29T01:58:41;94863.03;;;13.03;54.94
6132;BME280;3097;42.692;23.278;2024-03-29T02:01:09;94860.44;;;13.03;55.24
6132;BME280;3097;42.692;23.278;2024-03-29T02:03:35;94872.75;;;13.12;54.57
6132;BME280;3097;42.692;23.278;2024-03-29T02:06:01;94881.72;;;13.05;54.45
6132;BME280;3097;42.692;23.278;2024-03-29T02:08:28;94895.88;;;13.02;54.92
6132;BME280;3097;42.692;23.278;2024-03-29T02:10:54;94903.38;;;13.15;54.79
6132;BME280;3097;42.692;23.278;2024-03-29T02:13:21;94899.59;;;13.23;54.90
6132;BME280;3097;42.692;23.278;2024-03-29T02:15:47;94913.88;;;13.26;54.79
6132;BME280;3097;42.692;23.278;2024-03-29T02:18:12;94921.97;;;13.29;55.11
6132;BME280;3097;42.692;23.278;2024-03-29T02:20:38;94925.63;;;13.16;55.27
6132;BME280;3097;42.692;23.278;2024-03-29T02:23:08;94931.94;;;13.21;55.09
6132;BME280;3097;42.692;23.278;2024-03-29T02:25:35;94921.34;;;13.22;55.36
6132;BME280;3097;42.692;23.278;2024-03-29T02:28:01;94935.38;;;13.26;54.90
6132;BME280;3097;42.692;23.278;2024-03-29T02:30:28;94954.50;;;13.25;55.32
6132;BME280;3097;42.692;23.278;2024-03-29T02:32:59;94961.25;;;13.26;55.01
6132;BME280;3097;42.692;23.278;2024-03-29T02:35:25;94961.25;;;13.26;55.39
6132;BME280;3097;42.692;23.278;2024-03-29T02:37:51;94965.34;;;13.22;55.32
6132;BME280;3097;42.692;23.278;2024-03-29T02:40:18;94925.53;;;12.95;55.28
6132;BME280;3097;42.692;23.278;2024-03-29T02:42:45;94952.78;;;13.14;55.46
6132;BME280;3097;42.692;23.278;2024-03-29T02:45:11;94967.69;;;13.24;55.43
6132;BME280;3097;42.692;23.278;2024-03-29T02:47:36;94969.25;;;13.25;55.00
6132;BME280;3097;42.692;23.278;2024-03-29T02:50:02;94973.91;;;13.23;55.52
6132;BME280;3097;42.692;23.278;2024-03-29T02:52:28;94983.13;;;13.18;55.70
6132;BME280;3097;42.692;23.278;2024-03-29T02:54:54;94973.28;;;13.04;56.34
6132;BME280;3097;42.692;23.278;2024-03-29T02:57:20;94974.22;;;12.98;56.66
6132;BME280;3097;42.692;23.278;2024-03-29T02:59:46;94975.31;;;12.85;56.91
6132;BME280;3097;42.692;23.278;2024-03-29T03:02:11;94973.09;;;12.77;56.90
6132;BME280;3097;42.692;23.278;2024-03-29T03:04:37;94975.56;;;12.72;56.64
6132;BME280;3097;42.692;23.278;2024-03-29T03:07:02;94981.75;;;12.71;57.20
6132;BME280;3097;42.692;23.278;2024-03-29T03:09:46;94990.00;;;12.68;58.33
6132;BME280;3097;42.692;23.278;2024-03-29T03:12:31;94957.94;;;12.40;58.10
6132;BME280;3097;42.692;23.278;2024-03-29T03:14:57;94992.53;;;12.51;58.03
6132;BME280;3097;42.692;23.278;2024-03-29T03:17:23;94988.28;;;12.45;58.21
6132;BME280;3097;42.692;23.278;2024-03-29T03:19:51;95005.16;;;12.48;58.70
6132;BME280;3097;42.692;23.278;2024-03-29T03:22:17;95012.56;;;12.44;58.91
6132;BME280;3097;42.692;23.278;2024-03-29T03:24:42;94969.03;;;12.13;59.01
6132;BME280;3097;42.692;23.278;2024-03-29T03:27:08;95008.75;;;12.35;59.31
6132;BME280;3097;42.692;23.278;2024-03-29T03:29:33;95008.66;;;12.30;59.43
6132;BME280;3097;42.692;23.278;2024-03-29T03:31:59;95013.16;;;12.23;59.64
6132;BME280;3097;42.692;23.278;2024-03-29T03:34:24;94987.00;;;12.08;59.40
6132;BME280;3097;42.692;23.278;2024-03-29T03:36:50;95017.22;;;12.19;59.67
6132;BME280;3097;42.692;23.278;2024-03-29T03:39:16;95017.69;;;12.16;59.93
6132;BME280;3097;42.692;23.278;2024-03-29T03:41:41;95018.91;;;12.13;59.75
6132;BME280;3097;42.692;23.278;2024-03-29T03:44:07;95032.53;;;12.09;59.82
6132;BME280;3097;42.692;23.278;2024-03-29T03:46:32;95037.47;;;12.10;60.26
6132;BME280;3097;42.692;23.278;2024-03-29T03:48:58;95037.56;;;12.03;61.16
6132;BME280;3097;42.692;23.278;2024-03-29T03:51:23;95048.22;;;11.95;61.54
6132;BME280;3097;42.692;23.278;2024-03-29T03:53:49;95055.75;;;11.97;61.28
6132;BME280;3097;42.692;23.278;2024-03-29T03:56:15;95053.19;;;11.85;61.15
6132;BME280;3097;42.692;23.278;2024-03-29T03:58:41;95061.94;;;11.84;61.60
6132;BME280;3097;42.692;23.278;2024-03-29T04:01:06;95066.53;;;11.82;61.35
6132;BME280;3097;42.692;23.278;2024-03-29T04:03:32;95064.63;;;11.78;61.56
6132;BME280;3097;42.692;23.278;2024-03-29T04:05:57;95069.22;;;11.76;62.03
6132;BME280;3097;42.692;23.278;2024-03-29T04:08:23;95065.16;;;11.68;62.55
6132;BME280;3097;42.692;23.278;2024-03-29T04:10:48;95053.94;;;11.62;62.47
6132;BME280;3097;42.692;23.278;2024-03-29T04:13:14;95045.13;;;11.52;62.35
6132;BME280;3097;42.692;23.278;2024-03-29T04:15:39;95065.16;;;11.68;62.47
6132;BME280;3097;42.692;23.278;2024-03-29T04:18:06;95065.47;;;11.60;62.64
6132;BME280;3097;42.692;23.278;2024-03-29T04:20:31;95079.28;;;11.65;63.13
6132;BME280;3097;42.692;23.278;2024-03-29T04:22:57;95060.09;;;11.50;62.68
6132;BME280;3097;42.692;23.278;2024-03-29T04:25:23;95089.06;;;11.63;62.48
6132;BME280;3097;42.692;23.278;2024-03-29T04:27:48;95096.47;;;11.60;62.79
6132;BME280;3097;42.692;23.278;2024-03-29T04:30:14;95101.53;;;11.67;62.66
6132;BME280;3097;42.692;23.278;2024-03-29T04:32:39;95038.69;;;11.19;62.44
6132;BME280;3097;42.692;23.278;2024-03-29T04:35:05;95112.63;;;11.67;62.36
6132;BME280;3097;42.692;23.278;2024-03-29T04:37:31;95110.63;;;11.69;62.54
6132;BME280;3097;42.692;23.278;2024-03-29T04:39:58;95120.09;;;11.75;63.09
6132;BME280;3097;42.692;23.278;2024-03-29T04:42:24;95124.25;;;11.76;63.14
6132;BME280;3097;42.692;23.278;2024-03-29T04:44:50;95134.00;;;11.74;63.04
6132;BME280;3097;42.692;23.278;2024-03-29T04:47:16;95130.63;;;11.74;63.52
6132;BME280;3097;42.692;23.278;2024-03-29T04:49:42;95132.88;;;11.70;63.51
6132;BME280;3097;42.692;23.278;2024-03-29T04:52:07;95140.50;;;11.65;64.21
6132;BME280;3097;42.692;23.278;2024-03-29T04:54:33;95141.25;;;11.65;64.07
6132;BME280;3097;42.692;23.278;2024-03-29T04:56:59;95141.97;;;11.73;63.82
6132;BME280;3097;42.692;23.278;2024-03-29T04:59:27;95145.03;;;11.81;63.79
6132;BME280;3097;42.692;23.278;2024-03-29T05:01:56;95145.19;;;11.98;63.19
6132;BME280;3097;42.692;23.278;2024-03-29T05:04:23;95050.44;;;11.57;63.17
6132;BME280;3097;42.692;23.278;2024-03-29T05:06:58;95115.50;;;12.70;62.38
6132;BME280;3097;42.692;23.278;2024-03-29T05:09:24;95142.47;;;14.50;57.15
6132;BME280;3097;42.692;23.278;2024-03-29T05:11:50;95140.31;;;16.46;52.10
6132;BME280;3097;42.692;23.278;2024-03-29T05:14:17;95142.91;;;18.52;47.25
6132;BME280;3097;42.692;23.278;2024-03-29T05:16:48;95127.78;;;20.17;43.26
6132;BME280;3097;42.692;23.278;2024-03-29T05:19:15;95144.72;;;21.72;39.71
6132;BME280;3097;42.692;23.278;2024-03-29T05:21:41;95139.63;;;22.92;37.22
6132;BME280;3097;42.692;23.278;2024-03-29T05:24:07;95152.38;;;23.89;35.43
6132;BME280;3097;42.692;23.278;2024-03-29T05:26:33;95151.91;;;24.85;32.92
6132;BME280;3097;42.692;23.278;2024-03-29T05:28:59;95135.09;;;25.68;31.97
6132;BME280;3097;42.692;23.278;2024-03-29T05:31:25;95151.81;;;26.58;30.18
6132;BME280;3097;42.692;23.278;2024-03-29T05:33:51;95154.31;;;27.40;28.67
6132;BME280;3097;42.692;23.278;2024-03-29T05:36:16;95131.91;;;27.66;28.01
6132;BME280;3097;42.692;23.278;2024-03-29T05:38:43;95173.50;;;28.49;26.89
6132;BME280;3097;42.692;23.278;2024-03-29T05:41:09;95161.78;;;29.07;25.23
6132;BME280;3097;42.692;23.278;2024-03-29T05:43:34;95152.69;;;29.33;24.41
6132;BME280;3097;42.692;23.278;2024-03-29T05:46:00;95161.34;;;29.42;23.99
6132;BME280;3097;42.692;23.278;2024-03-29T05:48:27;95145.41;;;29.30;24.24
6132;BME280;3097;42.692;23.278;2024-03-29T05:50:52;95158.69;;;28.48;24.79
6132;BME280;3097;42.692;23.278;2024-03-29T05:53:18;95166.00;;;28.09;25.23
6132;BME280;3097;42.692;23.278;2024-03-29T05:55:44;95168.66;;;28.63;24.71
6132;BME280;3097;42.692;23.278;2024-03-29T05:58:09;95152.94;;;29.15;23.73
6132;BME280;3097;42.692;23.278;2024-03-29T06:00:35;95153.91;;;29.72;23.34
6132;BME280;3097;42.692;23.278;2024-03-29T06:03:01;95135.06;;;29.77;23.23
6132;BME280;3097;42.692;23.278;2024-03-29T06:05:30;95172.59;;;29.99;23.57
6132;BME280;3097;42.692;23.278;2024-03-29T06:07:56;95166.19;;;30.28;23.55
6132;BME280;3097;42.692;23.278;2024-03-29T06:10:21;95165.50;;;30.59;22.73
6132;BME280;3097;42.692;23.278;2024-03-29T06:12:47;95153.91;;;30.67;22.37
6132;BME280;3097;42.692;23.278;2024-03-29T06:15:12;95161.09;;;31.26;22.67
6132;BME280;3097;42.692;23.278;2024-03-29T06:17:56;95169.63;;;31.67;21.96
6132;BME280;3097;42.692;23.278;2024-03-29T06:20:23;95158.31;;;32.08;21.72
6132;BME280;3097;42.692;23.278;2024-03-29T06:22:49;95175.25;;;32.16;20.26
6132;BME280;3097;42.692;23.278;2024-03-29T06:25:14;95171.66;;;32.08;21.10
6132;BME280;3097;42.692;23.278;2024-03-29T06:27:40;95181.25;;;32.71;20.88
6132;BME280;3097;42.692;23.278;2024-03-29T06:30:07;95178.44;;;33.05;20.53
6132;BME280;3097;42.692;23.278;2024-03-29T06:32:33;95179.22;;;33.06;19.54
6132;BME280;3097;42.692;23.278;2024-03-29T06:34:59;95179.00;;;33.18;19.47
6132;BME280;3097;42.692;23.278;2024-03-29T06:37:26;95170.63;;;33.42;19.60
6132;BME280;3097;42.692;23.278;2024-03-29T06:39:52;95170.94;;;33.37;19.71
6132;BME280;3097;42.692;23.278;2024-03-29T06:42:18;95182.88;;;33.70;18.92
6132;BME280;3097;42.692;23.278;2024-03-29T06:44:43;95181.41;;;33.72;19.55
6132;BME280;3097;42.692;23.278;2024-03-29T06:47:09;95152.34;;;34.01;19.49
6132;BME280;3097;42.692;23.278;2024-03-29T06:49:35;95181.00;;;34.64;18.97
6132;BME280;3097;42.692;23.278;2024-03-29T06:52:01;95161.13;;;34.68;18.74
6132;BME280;3097;42.692;23.278;2024-03-29T06:54:30;95178.94;;;35.27;18.80
6132;BME280;3097;42.692;23.278;2024-03-29T06:56:58;95173.97;;;35.26;18.66
6132;BME280;3097;42.692;23.278;2024-03-29T06:59:23;95172.66;;;35.09;18.01
6132;BME280;3097;42.692;23.278;2024-03-29T07:01:49;95183.31;;;35.06;18.12
6132;BME280;3097;42.692;23.278;2024-03-29T07:04:24;95193.50;;;35.30;18.54
6132;BME280;3097;42.692;23.278;2024-03-29T07:06:50;95185.34;;;35.16;17.87
6132;BME280;3097;42.692;23.278;2024-03-29T07:09:21;95191.06;;;35.14;17.74
6132;BME280;3097;42.692;23.278;2024-03-29T07:11:48;95193.38;;;35.19;18.35
6132;BME280;3097;42.692;23.278;2024-03-29T07:14:14;95193.63;;;35.04;18.13
6132;BME280;3097;42.692;23.278;2024-03-29T07:16:40;95190.72;;;34.42;18.43
6132;BME280;3097;42.692;23.278;2024-03-29T07:19:06;95205.81;;;33.97;19.38
6132;BME280;3097;42.692;23.278;2024-03-29T07:21:31;95194.16;;;33.11;19.59
6132;BME280;3097;42.692;23.278;2024-03-29T07:23:57;95202.63;;;32.51;20.77
6132;BME280;3097;42.692;23.278;2024-03-29T07:26:22;95199.19;;;31.77;21.52
6132;BME280;3097;42.692;23.278;2024-03-29T07:28:48;95210.50;;;31.24;22.98
6132;BME280;3097;42.692;23.278;2024-03-29T07:31:14;95203.31;;;30.81;23.32
6132;BME280;3097;42.692;23.278;2024-03-29T07:33:39;95184.16;;;30.19;22.47
6132;BME280;3097;42.692;23.278;2024-03-29T07:36:05;95201.16;;;29.78;24.32
6132;BME280;3097;42.692;23.278;2024-03-29T07:38:31;95204.66;;;29.42;24.07
6132;BME280;3097;42.692;23.278;2024-03-29T07:40:57;95204.69;;;28.97;24.17
6132;BME280;3097;42.692;23.278;2024-03-29T07:43:22;95206.69;;;28.67;25.54
6132;BME280;3097;42.692;23.278;2024-03-29T07:45:48;95207.59;;;28.71;25.61
6132;BME280;3097;42.692;23.278;2024-03-29T07:48:17;95192.78;;;28.70;24.49
6132;BME280;3097;42.692;23.278;2024-03-29T07:50:44;95204.50;;;28.69;24.81
6132;BME280;3097;42.692;23.278;2024-03-29T07:53:10;95194.00;;;28.73;26.03
6132;BME280;3097;42.692;23.278;2024-03-29T07:55:38;95193.88;;;28.69;24.75
6132;BME280;3097;42.692;23.278;2024-03-29T07:58:04;95189.91;;;28.63;25.50
6132;BME280;3097;42.692;23.278;2024-03-29T08:00:34;95198.03;;;28.79;25.29
6132;BME280;3097;42.692;23.278;2024-03-29T08:03:00;95199.78;;;28.87;25.93
6132;BME280;3097;42.692;23.278;2024-03-29T08:05:27;95203.56;;;28.86;25.97
6132;BME280;3097;42.692;23.278;2024-03-29T08:07:53;95202.63;;;28.70;24.91
6132;BME280;3097;42.692;23.278;2024-03-29T08:10:18;95199.25;;;28.48;25.56
6132;BME280;3097;42.692;23.278;2024-03-29T08:12:44;95204.38;;;28.33;24.86
6132;BME280;3097;42.692;23.278;2024-03-29T08:15:09;95194.28;;;28.26;26.46
6132;BME280;3097;42.692;23.278;2024-03-29T08:17:36;95193.84;;;28.24;25.24
6132;BME280;3097;42.692;23.278;2024-03-29T08:20:02;95184.75;;;28.04;25.68
6132;BME280;3097;42.692;23.278;2024-03-29T08:22:28;95184.38;;;27.73;27.59
6132;BME280;3097;42.692;23.278;2024-03-29T08:24:55;95155.88;;;27.70;27.21
6132;BME280;3097;42.692;23.278;2024-03-29T08:27:21;95177.00;;;27.99;27.27
6132;BME280;3097;42.692;23.278;2024-03-29T08:29:46;95168.28;;;27.78;27.22
6132;BME280;3097;42.692;23.278;2024-03-29T08:32:14;95178.56;;;27.80;26.32
6132;BME280;3097;42.692;23.278;2024-03-29T08:34:40;95168.22;;;27.66;26.06
6132;BME280;3097;42.692;23.278;2024-03-29T08:37:05;95164.00;;;27.65;25.96
6132;BME280;3097;42.692;23.278;2024-03-29T08:39:31;95169.84;;;27.50;26.79
6132;BME280;3097;42.692;23.278;2024-03-29T08:41:57;95161.38;;;27.65;27.72
6132;BME280;3097;42.692;23.278;2024-03-29T08:44:23;95149.22;;;27.64;27.99
6132;BME280;3097;42.692;23.278;2024-03-29T08:46:50;95164.22;;;27.81;27.01
6132;BME280;3097;42.692;23.278;2024-03-29T08:49:16;95163.44;;;27.80;26.69
6132;BME280;3097;42.692;23.278;2024-03-29T08:51:41;95161.31;;;27.73;27.22
6132;BME280;3097;42.692;23.278;2024-03-29T08:54:07;95154.72;;;27.80;27.48
6132;BME280;3097;42.692;23.278;2024-03-29T08:56:32;95156.69;;;27.83;27.71
6132;BME280;3097;42.692;23.278;2024-03-29T08:59:05;95149.31;;;27.67;27.61
6132;BME280;3097;42.692;23.278;2024-03-29T09:01:36;95146.16;;;27.53;27.61
6132;BME280;3097;42.692;23.278;2024-03-29T09:04:03;95148.28;;;27.60;25.91
6132;BME280;3097;42.692;23.278;2024-03-29T09:06:32;95128.09;;;27.47;26.18
6132;BME280;3097;42.692;23.278;2024-03-29T09:08:58;95138.78;;;27.29;25.96
6132;BME280;3097;42.692;23.278;2024-03-29T09:11:24;95113.53;;;27.11;26.58
6132;BME280;3097;42.692;23.278;2024-03-29T09:13:49;95136.47;;;26.99;26.03
6132;BME280;3097;42.692;23.278;2024-03-29T09:16:15;95124.41;;;26.72;27.44
6132;BME280;3097;42.692;23.278;2024-03-29T09:18:40;95122.56;;;26.64;26.87
6132;BME280;3097;42.692;23.278;2024-03-29T09:21:06;95112.97;;;26.50;26.39
6132;BME280;3097;42.692;23.278;2024-03-29T09:23:34;95123.09;;;26.23;27.00
6132;BME280;3097;42.692;23.278;2024-03-29T09:26:00;95127.00;;;26.25;25.67
6132;BME280;3097;42.692;23.278;2024-03-29T09:28:25;95113.81;;;25.91;26.90
6132;BME280;3097;42.692;23.278;2024-03-29T09:30:57;95086.28;;;25.57;28.07
6132;BME280;3097;42.692;23.278;2024-03-29T09:33:24;95087.69;;;25.55;28.02
6132;BME280;3097;42.692;23.278;2024-03-29T09:35:49;95088.13;;;25.39;28.71
6132;BME280;3097;42.692;23.278;2024-03-29T09:38:16;95087.81;;;25.24;28.87
6132;BME280;3097;42.692;23.278;2024-03-29T09:40:41;95076.59;;;25.10;28.27
6132;BME280;3097;42.692;23.278;2024-03-29T09:43:10;95084.53;;;25.10;27.48
6132;BME280;3097;42.692;23.278;2024-03-29T09:45:35;95077.28;;;24.84;28.68
6132;BME280;3097;42.692;23.278;2024-03-29T09:48:05;95080.00;;;24.62;27.95
6132;BME280;3097;42.692;23.278;2024-03-29T09:50:34;95059.97;;;24.61;28.87
6132;BME280;3097;42.692;23.278;2024-03-29T09:53:01;95065.47;;;24.73;28.20
6132;BME280;3097;42.692;23.278;2024-03-29T09:55:27;95072.69;;;24.59;27.25
6132;BME280;3097;42.692;23.278;2024-03-29T09:57:54;95065.09;;;24.57;26.93
6132;BME280;3097;42.692;23.278;2024-03-29T10:00:19;95059.75;;;24.40;28.15
6132;BME280;3097;42.692;23.278;2024-03-29T10:02:46;95060.47;;;24.32;28.09
6132;BME280;3097;42.692;23.278;2024-03-29T10:05:14;95070.25;;;24.32;28.45
6132;BME280;3097;42.692;23.278;2024-03-29T10:07:40;95053.50;;;24.27;30.85
6132;BME280;3097;42.692;23.278;2024-03-29T10:10:08;95059.41;;;24.33;29.50
6132;BME280;3097;42.692;23.278;2024-03-29T10:12:33;95050.50;;;24.20;31.63
6132;BME280;3097;42.692;23.278;2024-03-29T10:14:59;95053.16;;;24.20;31.49
6132;BME280;3097;42.692;23.278;2024-03-29T10:17:34;95053.19;;;24.07;30.01
6132;BME280;3097;42.692;23.278;2024-03-29T10:20:04;95019.81;;;23.93;30.89
6132;BME280;3097;42.692;23.278;2024-03-29T10:22:36;95054.53;;;23.96;32.11
6132;BME280;3097;42.692;23.278;2024-03-29T10:25:01;95045.00;;;23.86;29.92
6132;BME280;3097;42.692;23.278;2024-03-29T10:27:27;95059.84;;;23.82;30.40
6132;BME280;3097;42.692;23.278;2024-03-29T10:29:53;95036.09;;;23.73;32.85
6132;BME280;3097;42.692;23.278;2024-03-29T10:32:19;95065.00;;;23.65;31.18
6132;BME280;3097;42.692;23.278;2024-03-29T10:34:44;95059.84;;;23.60;30.46
6132;BME280;3097;42.692;23.278;2024-03-29T10:37:10;95052.06;;;23.41;30.41
6132;BME280;3097;42.692;23.278;2024-03-29T10:39:36;95046.56;;;23.29;30.86
6132;BME280;3097;42.692;23.278;2024-03-29T10:42:02;95054.50;;;23.01;30.47
6132;BME280;3097;42.692;23.278;2024-03-29T10:44:30;95044.97;;;22.51;31.25
6132;BME280;3097;42.692;23.278;2024-03-29T10:46:56;95045.06;;;22.59;32.22
6132;BME280;3097;42.692;23.278;2024-03-29T10:49:24;95049.34;;;22.69;32.46
6132;BME280;3097;42.692;23.278;2024-03-29T10:51:49;95041.88;;;22.76;31.90
6132;BME280;3097;42.692;23.278;2024-03-29T10:54:16;95041.56;;;22.91;34.71
6132;BME280;3097;42.692;23.278;2024-03-29T10:56:47;95035.94;;;22.84;33.53
6132;BME280;3097;42.692;23.278;2024-03-29T11:01:52;95030.53;;;23.03;34.44
6132;BME280;3097;42.692;23.278;2024-03-29T11:04:22;95035.75;;;23.16;32.43
6132;BME280;3097;42.692;23.278;2024-03-29T11:06:54;95030.03;;;23.14;32.48
6132;BME280;3097;42.692;23.278;2024-03-29T11:09:27;95016.88;;;23.14;32.18
6132;BME280;3097;42.692;23.278;2024-03-29T11:11:58;95027.47;;;23.23;31.82
6132;BME280;3097;42.692;23.278;2024-03-29T11:14:35;95027.09;;;23.16;32.88
6132;BME280;3097;42.692;23.278;2024-03-29T11:17:03;94999.25;;;23.15;33.16
6132;BME280;3097;42.692;23.278;2024-03-29T11:19:29;95016.59;;;23.38;33.67
6132;BME280;3097;42.692;23.278;2024-03-29T11:21:55;95023.78;;;23.46;33.17
6132;BME280;3097;42.692;23.278;2024-03-29T11:24:22;94994.25;;;23.27;34.87
6132;BME280;3097;42.692;23.278;2024-03-29T11:26:48;95021.16;;;23.46;34.45
6132;BME280;3097;42.692;23.278;2024-03-29T11:29:21;95006.16;;;23.47;34.31
6132;BME280;3097;42.692;23.278;2024-03-29T11:31:47;95009.50;;;23.52;33.50
6132;BME280;3097;42.692;23.278;2024-03-29T11:34:18;95013.38;;;23.41;33.38
6132;BME280;3097;42.692;23.278;2024-03-29T11:36:45;94997.31;;;23.43;32.71
6132;BME280;3097;42.692;23.278;2024-03-29T11:39:20;95007.03;;;23.56;32.31
6132;BME280;3097;42.692;23.278;2024-03-29T11:41:47;95005.75;;;23.53;33.32
6132;BME280;3097;42.692;23.278;2024-03-29T11:44:13;95009.94;;;23.54;32.87
6132;BME280;3097;42.692;23.278;2024-03-29T11:46:39;94988.84;;;23.32;33.43
6132;BME280;3097;42.692;23.278;2024-03-29T11:49:05;94986.38;;;23.49;33.25
6132;BME280;3097;42.692;23.278;2024-03-29T11:51:31;94989.88;;;23.59;33.78
6132;BME280;3097;42.692;23.278;2024-03-29T11:53:57;94988.78;;;23.46;33.00
6132;BME280;3097;42.692;23.278;2024-03-29T11:56:23;94999.56;;;23.36;33.11
6132;BME280;3097;42.692;23.278;2024-03-29T11:58:48;94994.06;;;23.46;32.75
6132;BME280;3097;42.692;23.278;2024-03-29T12:01:14;94996.31;;;23.52;31.41
6132;BME280;3097;42.692;23.278;2024-03-29T12:03:41;94986.38;;;23.49;31.89
6132;BME280;3097;42.692;23.278;2024-03-29T12:06:08;94986.88;;;23.51;32.50
6132;BME280;3097;42.692;23.278;2024-03-29T12:08:36;94983.97;;;23.62;32.09
6132;BME280;3097;42.692;23.278;2024-03-29T12:11:03;94995.13;;;23.59;32.70
6132;BME280;3097;42.692;23.278;2024-03-29T12:13:29;94985.47;;;23.54;32.22
6132;BME280;3097;42.692;23.278;2024-03-29T12:15:56;94989.72;;;23.64;32.34
6132;BME280;3097;42.692;23.278;2024-03-29T12:18:22;94987.47;;;23.48;32.29
6132;BME280;3097;42.692;23.278;2024-03-29T12:20:49;94987.25;;;23.45;31.83
6132;BME280;3097;42.692;23.278;2024-03-29T12:23:20;94985.88;;;23.47;32.04
6132;BME280;3097;42.692;23.278;2024-03-29T12:25:47;94976.22;;;23.57;32.56
6132;BME280;3097;42.692;23.278;2024-03-29T12:28:14;94982.41;;;23.61;31.83
6132;BME280;3097;42.692;23.278;2024-03-29T12:30:45;94976.28;;;23.65;31.69
6132;BME280;3097;42.692;23.278;2024-03-29T12:33:13;94981.25;;;23.67;30.99
6132;BME280;3097;42.692;23.278;2024-03-29T12:35:44;94978.56;;;23.58;31.24
6132;BME280;3097;42.692;23.278;2024-03-29T12:38:15;94959.13;;;23.32;29.57
6132;BME280;3097;42.692;23.278;2024-03-29T12:40:45;94976.81;;;23.53;31.17
6132;BME280;3097;42.692;23.278;2024-03-29T12:43:13;94973.88;;;23.55;30.78
6132;BME280;3097;42.692;23.278;2024-03-29T12:45:40;94969.44;;;23.42;31.35
6132;BME280;3097;42.692;23.278;2024-03-29T12:48:14;94972.72;;;23.47;31.22
6132;BME280;3097;42.692;23.278;2024-03-29T12:50:41;94969.53;;;23.50;30.92
6132;BME280;3097;42.692;23.278;2024-03-29T12:53:09;94966.41;;;23.48;30.85
6132;BME280;3097;42.692;23.278;2024-03-29T12:55:35;94959.56;;;23.47;30.76
6132;BME280;3097;42.692;23.278;2024-03-29T12:58:02;94961.16;;;23.48;31.58
6132;BME280;3097;42.692;23.278;2024-03-29T13:00:30;94959.94;;;23.54;31.35
6132;BME280;3097;42.692;23.278;2024-03-29T13:02:56;94956.44;;;23.59;30.36
6132;BME280;3097;42.692;23.278;2024-03-29T13:05:22;94961.31;;;23.74;29.29
6132;BME280;3097;42.692;23.278;2024-03-29T13:07:47;94939.47;;;23.74;29.55
6132;BME280;3097;42.692;23.278;2024-03-29T13:10:13;94942.59;;;23.84;28.15